sensor_id;sensor_type;location;lat;lon;timestamp;temperature;humidity
19435;DHT22;9853;50.848;4.108;2023-06-05T00:00:28;15.60;99.90
19435;DHT22;9853;50.848;4.108;2023-06-05T00:02:28;15.60;99.90
19435;DHT22;9853;50.848;4.108;2023-06-05T00:04:29;15.50;99.90
19435;DHT22;9853;50.848;4.108;2023-06-05T00:06:30;15.40;99.90
19435;DHT22;9853;50.848;4.108;2023-06-05T00:08:31;15.50;99.90
19435;DHT22;9853;50.848;4.108;2023-06-05T00:10:32;15.50;99.90
19435;DHT22;9853;50.848;4.108;2023-06-05T00:12:34;15.50;99.90
19435;DHT22;9853;50.848;4.108;2023-06-05T00:14:35;15.30;99.90
19435;DHT22;9853;50.848;4.108;2023-06-05T00:16:37;15.20;99.90
19435;DHT22;9853;50.848;4.108;2023-06-05T00:18:38;15.10;99.90
19435;DHT22;9853;50.848;4.108;2023-06-05T00:20:39;15.20;99.90
19435;DHT22;9853;50.848;4.108;2023-06-05T00:22:40;15.30;99.90
19435;DHT22;9853;50.848;4.108;2023-06-05T00:24:40;15.30;99.90
19435;DHT22;9853;50.848;4.108;2023-06-05T00:26:42;15.10;99.90
19435;DHT22;9853;50.848;4.108;2023-06-05T00:28:42;15.10;99.90
19435;DHT22;9853;50.848;4.108;2023-06-05T00:30:43;15.10;99.90
19435;DHT22;9853;50.848;4.108;2023-06-05T00:32:44;15.20;99.90
19435;DHT22;9853;50.848;4.108;2023-06-05T00:34:45;15.20;99.90
19435;DHT22;9853;50.848;4.108;2023-06-05T00:36:47;15.20;99.90
19435;DHT22;9853;50.848;4.108;2023-06-05T00:38:51;15.10;99.90
19435;DHT22;9853;50.848;4.108;2023-06-05T00:40:51;15.00;99.90
19435;DHT22;9853;50.848;4.108;2023-06-05T00:42:53;14.90;99.90
19435;DHT22;9853;50.848;4.108;2023-06-05T00:44:53;14.90;99.90
19435;DHT22;9853;50.848;4.108;2023-06-05T00:46:54;14.80;99.90
19435;DHT22;9853;50.848;4.108;2023-06-05T00:48:55;14.80;99.90
19435;DHT22;9853;50.848;4.108;2023-06-05T00:50:56;14.80;99.90
19435;DHT22;9853;50.848;4.108;2023-06-05T00:53:13;14.70;99.90
19435;DHT22;9853;50.848;4.108;2023-06-05T00:55:14;14.60;99.90
19435;DHT22;9853;50.848;4.108;2023-06-05T00:57:16;14.60;99.90
19435;DHT22;9853;50.848;4.108;2023-06-05T00:59:17;14.50;99.90
19435;DHT22;9853;50.848;4.108;2023-06-05T01:01:18;14.40;99.90
19435;DHT22;9853;50.848;4.108;2023-06-05T01:03:21;14.40;99.90
19435;DHT22;9853;50.848;4.108;2023-06-05T01:05:24;14.40;99.90
19435;DHT22;9853;50.848;4.108;2023-06-05T01:07:26;14.40;99.90
19435;DHT22;9853;50.848;4.108;2023-06-05T01:09:33;14.40;99.90
19435;DHT22;9853;50.848;4.108;2023-06-05T01:11:45;14.40;99.90
19435;DHT22;9853;50.848;4.108;2023-06-05T01:14:06;14.40;99.90
19435;DHT22;9853;50.848;4.108;2023-06-05T01:16:09;14.30;99.90
19435;DHT22;9853;50.848;4.108;2023-06-05T01:18:11;14.20;99.90
19435;DHT22;9853;50.848;4.108;2023-06-05T01:20:13;14.20;99.90
19435;DHT22;9853;50.848;4.108;2023-06-05T01:22:13;14.20;99.90
19435;DHT22;9853;50.848;4.108;2023-06-05T01:24:14;14.10;99.90
19435;DHT22;9853;50.848;4.108;2023-06-05T01:26:20;14.00;99.90
19435;DHT22;9853;50.848;4.108;2023-06-05T01:28:27;14.00;99.90
19435;DHT22;9853;50.848;4.108;2023-06-05T01:30:43;14.00;99.90
19435;DHT22;9853;50.848;4.108;2023-06-05T01:32:55;14.00;99.90
19435;DHT22;9853;50.848;4.108;2023-06-05T01:34:57;14.00;99.90
19435;DHT22;9853;50.848;4.108;2023-06-05T01:37:02;14.00;99.90
19435;DHT22;9853;50.848;4.108;2023-06-05T01:39:04;13.90;99.90
19435;DHT22;9853;50.848;4.108;2023-06-05T01:41:06;13.90;99.90
19435;DHT22;9853;50.848;4.108;2023-06-05T01:43:09;13.90;99.90
19435;DHT22;9853;50.848;4.108;2023-06-05T01:45:11;13.90;99.90
19435;DHT22;9853;50.848;4.108;2023-06-05T01:47:12;13.80;99.90
19435;DHT22;9853;50.848;4.108;2023-06-05T01:49:14;13.80;99.90
19435;DHT22;9853;50.848;4.108;2023-06-05T01:51:16;13.70;99.90
19435;DHT22;9853;50.848;4.108;2023-06-05T01:53:17;13.70;99.90
19435;DHT22;9853;50.848;4.108;2023-06-05T01:55:20;13.70;99.90
19435;DHT22;9853;50.848;4.108;2023-06-05T01:57:24;13.70;99.90
19435;DHT22;9853;50.848;4.108;2023-06-05T01:59:25;13.70;99.90
19435;DHT22;9853;50.848;4.108;2023-06-05T02:01:26;13.60;99.90
19435;DHT22;9853;50.848;4.108;2023-06-05T02:03:30;13.60;99.90
19435;DHT22;9853;50.848;4.108;2023-06-05T02:05:30;13.60;99.90
19435;DHT22;9853;50.848;4.108;2023-06-05T02:07:33;13.60;99.90
19435;DHT22;9853;50.848;4.108;2023-06-05T02:09:36;13.50;99.90
19435;DHT22;9853;50.848;4.108;2023-06-05T02:11:37;13.50;99.90
19435;DHT22;9853;50.848;4.108;2023-06-05T02:13:39;13.50;99.90
19435;DHT22;9853;50.848;4.108;2023-06-05T02:15:44;13.60;99.90
19435;DHT22;9853;50.848;4.108;2023-06-05T02:17:45;13.60;99.90
19435;DHT22;9853;50.848;4.108;2023-06-05T02:19:51;13.50;99.90
19435;DHT22;9853;50.848;4.108;2023-06-05T02:21:51;13.50;99.90
19435;DHT22;9853;50.848;4.108;2023-06-05T02:23:54;13.50;99.90
19435;DHT22;9853;50.848;4.108;2023-06-05T02:25:55;13.40;99.90
19435;DHT22;9853;50.848;4.108;2023-06-05T02:27:56;13.40;99.90
19435;DHT22;9853;50.848;4.108;2023-06-05T02:29:56;13.40;99.90
19435;DHT22;9853;50.848;4.108;2023-06-05T02:31:58;13.40;99.90
19435;DHT22;9853;50.848;4.108;2023-06-05T02:33:59;13.40;99.90
19435;DHT22;9853;50.848;4.108;2023-06-05T02:35:59;13.50;99.90
19435;DHT22;9853;50.848;4.108;2023-06-05T02:38:00;13.50;99.90
19435;DHT22;9853;50.848;4.108;2023-06-05T02:40:02;13.50;99.90
19435;DHT22;9853;50.848;4.108;2023-06-05T02:42:03;13.50;99.90
19435;DHT22;9853;50.848;4.108;2023-06-05T02:44:05;13.50;99.90
19435;DHT22;9853;50.848;4.108;2023-06-05T02:46:09;13.50;99.90
19435;DHT22;9853;50.848;4.108;2023-06-05T02:48:11;13.40;99.90
19435;DHT22;9853;50.848;4.108;2023-06-05T02:50:12;13.40;99.90
19435;DHT22;9853;50.848;4.108;2023-06-05T02:52:17;13.40;99.90
19435;DHT22;9853;50.848;4.108;2023-06-05T02:54:18;13.40;99.90
19435;DHT22;9853;50.848;4.108;2023-06-05T02:56:18;13.40;99.90
19435;DHT22;9853;50.848;4.108;2023-06-05T02:58:20;13.40;99.90
19435;DHT22;9853;50.848;4.108;2023-06-05T03:00:28;13.30;99.90
19435;DHT22;9853;50.848;4.108;2023-06-05T03:02:29;13.40;99.90
19435;DHT22;9853;50.848;4.108;2023-06-05T03:04:30;13.40;99.90
19435;DHT22;9853;50.848;4.108;2023-06-05T03:06:31;13.30;99.90
19435;DHT22;9853;50.848;4.108;2023-06-05T03:08:38;13.30;99.90
19435;DHT22;9853;50.848;4.108;2023-06-05T03:10:39;13.20;99.90
19435;DHT22;9853;50.848;4.108;2023-06-05T03:12:41;13.30;99.90
19435;DHT22;9853;50.848;4.108;2023-06-05T03:14:41;13.20;99.90
19435;DHT22;9853;50.848;4.108;2023-06-05T03:16:42;13.30;99.90
19435;DHT22;9853;50.848;4.108;2023-06-05T03:18:45;13.30;99.90
19435;DHT22;9853;50.848;4.108;2023-06-05T03:20:47;13.20;99.90
19435;DHT22;9853;50.848;4.108;2023-06-05T03:22:50;13.20;99.90
19435;DHT22;9853;50.848;4.108;2023-06-05T03:24:52;13.20;99.90
19435;DHT22;9853;50.848;4.108;2023-06-05T03:26:53;13.00;99.90
19435;DHT22;9853;50.848;4.108;2023-06-05T03:28:56;13.10;99.90
19435;DHT22;9853;50.848;4.108;2023-06-05T03:30:57;13.00;99.90
19435;DHT22;9853;50.848;4.108;2023-06-05T03:33:00;13.00;99.90
19435;DHT22;9853;50.848;4.108;2023-06-05T03:35:04;13.10;99.90
19435;DHT22;9853;50.848;4.108;2023-06-05T03:37:06;13.20;99.90
19435;DHT22;9853;50.848;4.108;2023-06-05T03:39:07;13.30;99.90
19435;DHT22;9853;50.848;4.108;2023-06-05T03:41:11;13.30;99.90
19435;DHT22;9853;50.848;4.108;2023-06-05T03:43:12;13.20;99.90
19435;DHT22;9853;50.848;4.108;2023-06-05T03:45:13;13.10;99.90
19435;DHT22;9853;50.848;4.108;2023-06-05T03:47:15;13.10;99.90
19435;DHT22;9853;50.848;4.108;2023-06-05T03:49:16;13.00;99.90
19435;DHT22;9853;50.848;4.108;2023-06-05T03:51:17;12.90;99.90
19435;DHT22;9853;50.848;4.108;2023-06-05T03:53:19;12.90;99.90
19435;DHT22;9853;50.848;4.108;2023-06-05T03:55:20;12.90;99.90
19435;DHT22;9853;50.848;4.108;2023-06-05T03:57:21;12.90;99.90
19435;DHT22;9853;50.848;4.108;2023-06-05T03:59:23;13.00;99.90
19435;DHT22;9853;50.848;4.108;2023-06-05T04:01:31;13.10;99.90
19435;DHT22;9853;50.848;4.108;2023-06-05T04:03:35;13.20;99.90
19435;DHT22;9853;50.848;4.108;2023-06-05T04:05:39;13.10;99.90
19435;DHT22;9853;50.848;4.108;2023-06-05T04:07:40;13.20;99.90
19435;DHT22;9853;50.848;4.108;2023-06-05T04:09:42;13.10;99.90
19435;DHT22;9853;50.848;4.108;2023-06-05T04:11:44;13.10;99.90
19435;DHT22;9853;50.848;4.108;2023-06-05T04:13:46;13.00;99.90
19435;DHT22;9853;50.848;4.108;2023-06-05T04:15:48;12.90;99.90
19435;DHT22;9853;50.848;4.108;2023-06-05T04:17:49;12.80;99.90
19435;DHT22;9853;50.848;4.108;2023-06-05T04:19:51;12.80;99.90
19435;DHT22;9853;50.848;4.108;2023-06-05T04:21:51;12.80;99.90
19435;DHT22;9853;50.848;4.108;2023-06-05T04:23:52;12.70;99.90
19435;DHT22;9853;50.848;4.108;2023-06-05T04:25:53;12.70;99.90
19435;DHT22;9853;50.848;4.108;2023-06-05T04:27:55;12.80;99.90
19435;DHT22;9853;50.848;4.108;2023-06-05T04:29:57;12.80;99.90
19435;DHT22;9853;50.848;4.108;2023-06-05T04:31:58;12.70;99.90
19435;DHT22;9853;50.848;4.108;2023-06-05T04:33:59;12.70;99.90
19435;DHT22;9853;50.848;4.108;2023-06-05T04:36:02;12.70;99.90
19435;DHT22;9853;50.848;4.108;2023-06-05T04:38:05;12.70;99.90
19435;DHT22;9853;50.848;4.108;2023-06-05T04:40:07;12.70;99.90
19435;DHT22;9853;50.848;4.108;2023-06-05T04:42:10;12.60;99.90
19435;DHT22;9853;50.848;4.108;2023-06-05T04:44:12;12.60;99.90
19435;DHT22;9853;50.848;4.108;2023-06-05T04:46:14;12.70;99.90
19435;DHT22;9853;50.848;4.108;2023-06-05T04:48:15;12.80;99.90
19435;DHT22;9853;50.848;4.108;2023-06-05T04:50:26;12.80;99.90
19435;DHT22;9853;50.848;4.108;2023-06-05T04:52:39;12.80;99.90
19435;DHT22;9853;50.848;4.108;2023-06-05T04:54:41;12.80;99.90
19435;DHT22;9853;50.848;4.108;2023-06-05T04:56:42;12.90;99.90
19435;DHT22;9853;50.848;4.108;2023-06-05T04:58:45;12.90;99.90
19435;DHT22;9853;50.848;4.108;2023-06-05T05:00:48;12.80;99.90
19435;DHT22;9853;50.848;4.108;2023-06-05T05:02:50;12.80;99.90
19435;DHT22;9853;50.848;4.108;2023-06-05T05:04:53;12.80;99.90
19435;DHT22;9853;50.848;4.108;2023-06-05T05:06:54;12.80;99.90
19435;DHT22;9853;50.848;4.108;2023-06-05T05:08:56;12.80;99.90
19435;DHT22;9853;50.848;4.108;2023-06-05T05:11:04;12.90;99.90
19435;DHT22;9853;50.848;4.108;2023-06-05T05:13:05;12.80;99.90
19435;DHT22;9853;50.848;4.108;2023-06-05T05:15:07;12.80;99.90
19435;DHT22;9853;50.848;4.108;2023-06-05T05:17:08;12.80;99.90
19435;DHT22;9853;50.848;4.108;2023-06-05T05:19:10;12.90;99.90
19435;DHT22;9853;50.848;4.108;2023-06-05T05:21:11;12.90;99.90
19435;DHT22;9853;50.848;4.108;2023-06-05T05:23:15;13.00;99.90
19435;DHT22;9853;50.848;4.108;2023-06-05T05:25:16;13.00;99.90
19435;DHT22;9853;50.848;4.108;2023-06-05T05:27:17;13.10;99.90
19435;DHT22;9853;50.848;4.108;2023-06-05T05:29:19;13.10;99.90
19435;DHT22;9853;50.848;4.108;2023-06-05T05:31:21;13.20;99.90
19435;DHT22;9853;50.848;4.108;2023-06-05T05:33:24;13.10;99.90
19435;DHT22;9853;50.848;4.108;2023-06-05T05:35:24;13.20;99.90
19435;DHT22;9853;50.848;4.108;2023-06-05T05:37:25;13.30;99.90
19435;DHT22;9853;50.848;4.108;2023-06-05T05:39:26;13.40;99.90
19435;DHT22;9853;50.848;4.108;2023-06-05T05:41:28;13.40;99.90
19435;DHT22;9853;50.848;4.108;2023-06-05T05:43:32;13.50;99.90
19435;DHT22;9853;50.848;4.108;2023-06-05T05:45:33;13.50;99.90
19435;DHT22;9853;50.848;4.108;2023-06-05T05:47:33;13.60;99.90
19435;DHT22;9853;50.848;4.108;2023-06-05T05:49:34;13.60;99.90
19435;DHT22;9853;50.848;4.108;2023-06-05T05:51:35;13.50;99.90
19435;DHT22;9853;50.848;4.108;2023-06-05T05:53:36;13.60;99.90
19435;DHT22;9853;50.848;4.108;2023-06-05T05:55:36;13.50;99.90
19435;DHT22;9853;50.848;4.108;2023-06-05T05:57:41;13.50;99.90
19435;DHT22;9853;50.848;4.108;2023-06-05T05:59:44;13.60;99.90
19435;DHT22;9853;50.848;4.108;2023-06-05T06:01:45;13.60;99.90
19435;DHT22;9853;50.848;4.108;2023-06-05T06:03:46;13.60;99.90
19435;DHT22;9853;50.848;4.108;2023-06-05T06:05:47;13.70;99.90
19435;DHT22;9853;50.848;4.108;2023-06-05T06:07:50;13.90;99.90
19435;DHT22;9853;50.848;4.108;2023-06-05T06:09:50;14.00;99.90
19435;DHT22;9853;50.848;4.108;2023-06-05T06:11:51;14.00;99.90
19435;DHT22;9853;50.848;4.108;2023-06-05T06:13:55;14.20;99.90
19435;DHT22;9853;50.848;4.108;2023-06-05T06:15:56;14.40;99.90
19435;DHT22;9853;50.848;4.108;2023-06-05T06:17:57;14.30;99.90
19435;DHT22;9853;50.848;4.108;2023-06-05T06:19:57;14.40;99.90
19435;DHT22;9853;50.848;4.108;2023-06-05T06:21:58;14.40;99.90
19435;DHT22;9853;50.848;4.108;2023-06-05T06:23:59;14.60;99.90
19435;DHT22;9853;50.848;4.108;2023-06-05T06:26:00;14.70;99.90
19435;DHT22;9853;50.848;4.108;2023-06-05T06:28:01;14.80;99.90
19435;DHT22;9853;50.848;4.108;2023-06-05T06:30:05;14.80;99.90
19435;DHT22;9853;50.848;4.108;2023-06-05T06:32:09;14.90;99.90
19435;DHT22;9853;50.848;4.108;2023-06-05T06:34:10;14.80;99.90
19435;DHT22;9853;50.848;4.108;2023-06-05T06:36:11;14.80;99.90
19435;DHT22;9853;50.848;4.108;2023-06-05T06:38:12;14.80;99.90
19435;DHT22;9853;50.848;4.108;2023-06-05T06:40:13;14.80;99.90
19435;DHT22;9853;50.848;4.108;2023-06-05T06:42:15;14.90;99.90
19435;DHT22;9853;50.848;4.108;2023-06-05T06:44:25;14.90;99.90
19435;DHT22;9853;50.848;4.108;2023-06-05T06:46:26;14.90;99.90
19435;DHT22;9853;50.848;4.108;2023-06-05T06:48:27;15.00;99.90
19435;DHT22;9853;50.848;4.108;2023-06-05T06:50:27;15.20;99.90
19435;DHT22;9853;50.848;4.108;2023-06-05T06:52:28;15.30;99.90
19435;DHT22;9853;50.848;4.108;2023-06-05T06:54:29;15.40;99.90
19435;DHT22;9853;50.848;4.108;2023-06-05T06:56:30;15.60;99.90
19435;DHT22;9853;50.848;4.108;2023-06-05T06:58:30;15.60;99.90
19435;DHT22;9853;50.848;4.108;2023-06-05T07:00:31;15.60;99.90
19435;DHT22;9853;50.848;4.108;2023-06-05T07:02:32;15.70;99.90
19435;DHT22;9853;50.848;4.108;2023-06-05T07:04:33;15.70;99.90
19435;DHT22;9853;50.848;4.108;2023-06-05T07:06:33;15.60;99.90
19435;DHT22;9853;50.848;4.108;2023-06-05T07:08:36;15.60;99.90
19435;DHT22;9853;50.848;4.108;2023-06-05T07:10:36;15.50;99.90
19435;DHT22;9853;50.848;4.108;2023-06-05T07:12:37;16.00;99.90
19435;DHT22;9853;50.848;4.108;2023-06-05T07:14:39;16.80;99.90
19435;DHT22;9853;50.848;4.108;2023-06-05T07:16:40;17.60;99.90
19435;DHT22;9853;50.848;4.108;2023-06-05T07:18:42;18.00;99.90
19435;DHT22;9853;50.848;4.108;2023-06-05T07:20:47;18.50;99.90
19435;DHT22;9853;50.848;4.108;2023-06-05T07:22:48;18.70;99.90
19435;DHT22;9853;50.848;4.108;2023-06-05T07:24:49;18.90;99.90
19435;DHT22;9853;50.848;4.108;2023-06-05T07:26:51;19.10;99.90
19435;DHT22;9853;50.848;4.108;2023-06-05T07:28:52;19.70;99.90
19435;DHT22;9853;50.848;4.108;2023-06-05T07:30:56;20.00;99.90
19435;DHT22;9853;50.848;4.108;2023-06-05T07:33:03;19.90;99.90
19435;DHT22;9853;50.848;4.108;2023-06-05T07:35:05;19.70;99.90
19435;DHT22;9853;50.848;4.108;2023-06-05T07:37:09;19.80;99.90
19435;DHT22;9853;50.848;4.108;2023-06-05T07:39:12;20.10;99.90
19435;DHT22;9853;50.848;4.108;2023-06-05T07:41:28;20.30;99.90
19435;DHT22;9853;50.848;4.108;2023-06-05T07:43:29;20.10;99.90
19435;DHT22;9853;50.848;4.108;2023-06-05T07:45:30;20.10;99.90
19435;DHT22;9853;50.848;4.108;2023-06-05T07:47:36;20.10;99.90
19435;DHT22;9853;50.848;4.108;2023-06-05T07:49:40;20.20;99.90
19435;DHT22;9853;50.848;4.108;2023-06-05T07:51:43;20.50;99.90
19435;DHT22;9853;50.848;4.108;2023-06-05T07:54:08;20.50;99.90
19435;DHT22;9853;50.848;4.108;2023-06-05T07:56:11;20.60;99.90
19435;DHT22;9853;50.848;4.108;2023-06-05T07:58:16;20.90;99.90
19435;DHT22;9853;50.848;4.108;2023-06-05T08:00:17;21.10;99.90
19435;DHT22;9853;50.848;4.108;2023-06-05T08:02:20;21.30;99.90
19435;DHT22;9853;50.848;4.108;2023-06-05T08:04:21;21.30;99.90
19435;DHT22;9853;50.848;4.108;2023-06-05T08:06:32;21.40;99.90
19435;DHT22;9853;50.848;4.108;2023-06-05T08:08:33;21.50;99.90
19435;DHT22;9853;50.848;4.108;2023-06-05T08:10:41;21.80;99.90
19435;DHT22;9853;50.848;4.108;2023-06-05T08:12:43;22.10;99.90
19435;DHT22;9853;50.848;4.108;2023-06-05T08:14:43;22.50;99.90
19435;DHT22;9853;50.848;4.108;2023-06-05T08:16:48;22.60;99.90
19435;DHT22;9853;50.848;4.108;2023-06-05T08:18:49;22.70;99.90
19435;DHT22;9853;50.848;4.108;2023-06-05T08:20:52;22.50;99.90
19435;DHT22;9853;50.848;4.108;2023-06-05T08:22:56;22.10;99.90
19435;DHT22;9853;50.848;4.108;2023-06-05T08:24:58;22.00;99.90
19435;DHT22;9853;50.848;4.108;2023-06-05T08:27:01;22.20;99.90
19435;DHT22;9853;50.848;4.108;2023-06-05T08:29:02;22.60;99.90
19435;DHT22;9853;50.848;4.108;2023-06-05T08:31:05;22.70;99.90
19435;DHT22;9853;50.848;4.108;2023-06-05T08:33:06;22.70;99.90
19435;DHT22;9853;50.848;4.108;2023-06-05T08:35:14;22.60;99.90
19435;DHT22;9853;50.848;4.108;2023-06-05T08:37:16;22.70;99.90
19435;DHT22;9853;50.848;4.108;2023-06-05T08:39:17;22.60;99.90
19435;DHT22;9853;50.848;4.108;2023-06-05T08:41:20;22.40;99.90
19435;DHT22;9853;50.848;4.108;2023-06-05T08:43:21;22.30;99.90
19435;DHT22;9853;50.848;4.108;2023-06-05T08:45:25;22.70;99.90
19435;DHT22;9853;50.848;4.108;2023-06-05T08:47:43;22.70;99.90
19435;DHT22;9853;50.848;4.108;2023-06-05T08:50:03;22.40;99.90
19435;DHT22;9853;50.848;4.108;2023-06-05T08:52:25;22.30;99.90
19435;DHT22;9853;50.848;4.108;2023-06-05T08:54:38;22.90;99.90
19435;DHT22;9853;50.848;4.108;2023-06-05T08:56:40;22.80;99.90
19435;DHT22;9853;50.848;4.108;2023-06-05T08:58:46;22.80;99.90
19435;DHT22;9853;50.848;4.108;2023-06-05T09:00:52;22.80;99.90
19435;DHT22;9853;50.848;4.108;2023-06-05T09:02:53;22.80;99.90
19435;DHT22;9853;50.848;4.108;2023-06-05T09:04:58;22.90;99.90
19435;DHT22;9853;50.848;4.108;2023-06-05T09:07:03;23.00;99.90
19435;DHT22;9853;50.848;4.108;2023-06-05T09:09:05;23.00;99.90
19435;DHT22;9853;50.848;4.108;2023-06-05T09:13:44;22.80;99.90
19435;DHT22;9853;50.848;4.108;2023-06-05T09:15:50;22.30;99.90
19435;DHT22;9853;50.848;4.108;2023-06-05T09:18:13;22.10;99.90
19435;DHT22;9853;50.848;4.108;2023-06-05T09:20:25;22.10;99.90
19435;DHT22;9853;50.848;4.108;2023-06-05T09:22:32;22.40;99.90
19435;DHT22;9853;50.848;4.108;2023-06-05T09:24:37;22.70;99.90
19435;DHT22;9853;50.848;4.108;2023-06-05T09:29:00;22.40;99.90
19435;DHT22;9853;50.848;4.108;2023-06-05T09:31:09;22.30;99.90
19435;DHT22;9853;50.848;4.108;2023-06-05T09:33:10;22.40;99.90
19435;DHT22;9853;50.848;4.108;2023-06-05T09:35:23;22.40;99.90
19435;DHT22;9853;50.848;4.108;2023-06-05T09:37:33;22.60;99.90
19435;DHT22;9853;50.848;4.108;2023-06-05T09:39:41;22.90;99.90
19435;DHT22;9853;50.848;4.108;2023-06-05T09:41:47;23.30;99.90
19435;DHT22;9853;50.848;4.108;2023-06-05T09:43:52;23.10;99.90
19435;DHT22;9853;50.848;4.108;2023-06-05T09:45:53;23.00;99.90
19435;DHT22;9853;50.848;4.108;2023-06-05T09:48:13;23.00;99.90
19435;DHT22;9853;50.848;4.108;2023-06-05T09:50:22;23.20;99.90
19435;DHT22;9853;50.848;4.108;2023-06-05T09:52:28;23.30;99.90
19435;DHT22;9853;50.848;4.108;2023-06-05T09:54:31;23.40;99.90
19435;DHT22;9853;50.848;4.108;2023-06-05T09:56:32;23.60;99.90
19435;DHT22;9853;50.848;4.108;2023-06-05T09:58:34;23.50;99.90
19435;DHT22;9853;50.848;4.108;2023-06-05T10:00:37;23.40;99.90
19435;DHT22;9853;50.848;4.108;2023-06-05T10:02:46;23.60;99.90
19435;DHT22;9853;50.848;4.108;2023-06-05T10:05:00;23.80;99.90
19435;DHT22;9853;50.848;4.108;2023-06-05T10:07:05;23.90;99.90
19435;DHT22;9853;50.848;4.108;2023-06-05T10:09:08;24.10;99.90
19435;DHT22;9853;50.848;4.108;2023-06-05T10:11:10;24.20;99.90
19435;DHT22;9853;50.848;4.108;2023-06-05T10:13:15;24.40;99.90
19435;DHT22;9853;50.848;4.108;2023-06-05T10:15:16;24.20;99.90
19435;DHT22;9853;50.848;4.108;2023-06-05T10:17:18;23.90;99.90
19435;DHT22;9853;50.848;4.108;2023-06-05T10:19:20;23.70;99.90
19435;DHT22;9853;50.848;4.108;2023-06-05T10:21:21;23.70;99.90
19435;DHT22;9853;50.848;4.108;2023-06-05T10:23:22;23.50;99.90
19435;DHT22;9853;50.848;4.108;2023-06-05T10:25:23;23.10;99.90
19435;DHT22;9853;50.848;4.108;2023-06-05T10:28:05;22.80;99.90
19435;DHT22;9853;50.848;4.108;2023-06-05T10:30:35;22.70;99.90
19435;DHT22;9853;50.848;4.108;2023-06-05T10:33:25;22.60;99.90
19435;DHT22;9853;50.848;4.108;2023-06-05T10:38:23;22.20;99.90
19435;DHT22;9853;50.848;4.108;2023-06-05T10:40:26;22.20;99.90
19435;DHT22;9853;50.848;4.108;2023-06-05T10:42:30;22.00;99.90
19435;DHT22;9853;50.848;4.108;2023-06-05T10:44:43;22.00;99.90
19435;DHT22;9853;50.848;4.108;2023-06-05T10:46:45;22.00;99.90
19435;DHT22;9853;50.848;4.108;2023-06-05T10:49:11;21.90;99.90
19435;DHT22;9853;50.848;4.108;2023-06-05T10:51:53;22.00;99.90
19435;DHT22;9853;50.848;4.108;2023-06-05T10:59:14;22.30;99.90
19435;DHT22;9853;50.848;4.108;2023-06-05T11:01:37;22.40;99.90
19435;DHT22;9853;50.848;4.108;2023-06-05T11:03:56;22.40;99.90
19435;DHT22;9853;50.848;4.108;2023-06-05T11:06:11;22.30;99.90
19435;DHT22;9853;50.848;4.108;2023-06-05T11:08:17;22.40;99.90
19435;DHT22;9853;50.848;4.108;2023-06-05T11:15:41;22.40;99.90
19435;DHT22;9853;50.848;4.108;2023-06-05T11:17:45;22.50;99.90
19435;DHT22;9853;50.848;4.108;2023-06-05T11:19:46;22.50;99.90
19435;DHT22;9853;50.848;4.108;2023-06-05T11:22:03;22.70;99.90
19435;DHT22;9853;50.848;4.108;2023-06-05T11:24:14;23.00;99.90
19435;DHT22;9853;50.848;4.108;2023-06-05T11:26:38;23.10;99.90
19435;DHT22;9853;50.848;4.108;2023-06-05T11:28:43;23.00;99.90
19435;DHT22;9853;50.848;4.108;2023-06-05T11:30:45;23.00;99.90
19435;DHT22;9853;50.848;4.108;2023-06-05T11:32:56;22.90;99.90
19435;DHT22;9853;50.848;4.108;2023-06-05T11:35:00;23.00;99.90
19435;DHT22;9853;50.848;4.108;2023-06-05T11:37:15;23.10;99.90
19435;DHT22;9853;50.848;4.108;2023-06-05T11:39:18;23.20;99.90
19435;DHT22;9853;50.848;4.108;2023-06-05T11:41:23;23.20;99.90
19435;DHT22;9853;50.848;4.108;2023-06-05T11:43:26;23.10;99.90
19435;DHT22;9853;50.848;4.108;2023-06-05T11:45:28;23.10;99.90
19435;DHT22;9853;50.848;4.108;2023-06-05T11:47:29;23.10;99.90
19435;DHT22;9853;50.848;4.108;2023-06-05T11:49:30;23.30;99.90
19435;DHT22;9853;50.848;4.108;2023-06-05T11:51:34;23.40;99.90
19435;DHT22;9853;50.848;4.108;2023-06-05T11:53:58;23.60;99.90
19435;DHT22;9853;50.848;4.108;2023-06-05T11:56:00;23.50;99.90
19435;DHT22;9853;50.848;4.108;2023-06-05T11:58:03;23.50;99.90
19435;DHT22;9853;50.848;4.108;2023-06-05T12:00:04;23.40;99.90
19435;DHT22;9853;50.848;4.108;2023-06-05T12:02:09;23.30;99.90
19435;DHT22;9853;50.848;4.108;2023-06-05T12:04:10;23.10;99.90
19435;DHT22;9853;50.848;4.108;2023-06-05T12:06:12;23.10;99.90
19435;DHT22;9853;50.848;4.108;2023-06-05T12:08:24;23.20;99.90
19435;DHT22;9853;50.848;4.108;2023-06-05T12:10:34;23.40;99.90
19435;DHT22;9853;50.848;4.108;2023-06-05T12:12:56;23.70;99.90
19435;DHT22;9853;50.848;4.108;2023-06-05T12:14:56;23.80;99.90
19435;DHT22;9853;50.848;4.108;2023-06-05T12:16:57;23.70;99.90
19435;DHT22;9853;50.848;4.108;2023-06-05T12:18:59;23.50;99.90
19435;DHT22;9853;50.848;4.108;2023-06-05T12:21:00;23.50;99.90
19435;DHT22;9853;50.848;4.108;2023-06-05T12:23:01;23.60;99.90
19435;DHT22;9853;50.848;4.108;2023-06-05T12:25:21;23.80;99.90
19435;DHT22;9853;50.848;4.108;2023-06-05T12:27:30;23.80;99.90
19435;DHT22;9853;50.848;4.108;2023-06-05T12:29:34;23.80;99.90
19435;DHT22;9853;50.848;4.108;2023-06-05T12:31:36;23.70;99.90
19435;DHT22;9853;50.848;4.108;2023-06-05T12:33:49;23.60;99.90
19435;DHT22;9853;50.848;4.108;2023-06-05T12:36:03;23.50;99.90
19435;DHT22;9853;50.848;4.108;2023-06-05T12:38:04;23.60;99.90
19435;DHT22;9853;50.848;4.108;2023-06-05T12:40:06;23.60;99.90
19435;DHT22;9853;50.848;4.108;2023-06-05T12:42:10;23.60;99.90
19435;DHT22;9853;50.848;4.108;2023-06-05T12:44:11;23.60;99.90
19435;DHT22;9853;50.848;4.108;2023-06-05T12:46:12;23.70;99.90
19435;DHT22;9853;50.848;4.108;2023-06-05T12:48:14;23.70;99.90
19435;DHT22;9853;50.848;4.108;2023-06-05T12:50:14;23.70;99.90
19435;DHT22;9853;50.848;4.108;2023-06-05T12:52:16;23.70;99.90
19435;DHT22;9853;50.848;4.108;2023-06-05T12:54:17;23.80;99.90
19435;DHT22;9853;50.848;4.108;2023-06-05T12:56:19;23.80;99.90
19435;DHT22;9853;50.848;4.108;2023-06-05T12:58:25;23.80;99.90
19435;DHT22;9853;50.848;4.108;2023-06-05T13:00:25;23.80;99.90
19435;DHT22;9853;50.848;4.108;2023-06-05T13:02:26;24.00;99.90
19435;DHT22;9853;50.848;4.108;2023-06-05T13:04:29;24.00;99.90
19435;DHT22;9853;50.848;4.108;2023-06-05T13:06:31;24.00;99.90
19435;DHT22;9853;50.848;4.108;2023-06-05T13:08:34;24.00;99.90
19435;DHT22;9853;50.848;4.108;2023-06-05T13:10:34;24.10;99.90
19435;DHT22;9853;50.848;4.108;2023-06-05T13:12:35;24.40;99.90
19435;DHT22;9853;50.848;4.108;2023-06-05T13:14:36;24.20;99.90
19435;DHT22;9853;50.848;4.108;2023-06-05T13:16:36;24.20;99.90
19435;DHT22;9853;50.848;4.108;2023-06-05T13:18:37;24.40;99.90
19435;DHT22;9853;50.848;4.108;2023-06-05T13:20:38;24.40;99.90
19435;DHT22;9853;50.848;4.108;2023-06-05T13:22:39;24.40;99.90
19435;DHT22;9853;50.848;4.108;2023-06-05T13:24:40;24.30;99.90
19435;DHT22;9853;50.848;4.108;2023-06-05T13:26:42;24.40;99.90
19435;DHT22;9853;50.848;4.108;2023-06-05T13:28:43;24.30;99.90
19435;DHT22;9853;50.848;4.108;2023-06-05T13:30:47;24.20;99.90
19435;DHT22;9853;50.848;4.108;2023-06-05T13:32:47;24.10;99.90